createdAt,value
2022-12-12T00:04:18.276Z,0.88
2022-12-12T00:10:41.314Z,0.8
2022-12-12T00:17:01.215Z,0.72
2022-12-12T00:23:24.197Z,0.65
2022-12-12T00:29:44.137Z,0.63
2022-12-12T00:36:07.221Z,0.63
2022-12-12T00:42:27.320Z,0.59
2022-12-12T00:48:50.226Z,0.64
2022-12-12T00:55:10.700Z,0.68
2022-12-12T01:01:33.347Z,0.76
2022-12-12T01:07:53.259Z,0.83
2022-12-12T01:14:16.197Z,0.89
2022-12-12T01:20:36.180Z,0.91
2022-12-12T01:26:59.172Z,0.92
2022-12-12T01:33:19.185Z,0.91
2022-12-12T01:39:42.222Z,0.92
2022-12-12T01:46:02.159Z,0.82
2022-12-12T01:52:25.167Z,0.78
2022-12-12T01:58:45.176Z,0.74
2022-12-12T02:05:08.233Z,0.65
2022-12-12T02:11:28.138Z,0.56
2022-12-12T02:17:51.229Z,0.56
2022-12-12T02:24:11.223Z,0.55
2022-12-12T02:30:34.168Z,0.45
2022-12-12T02:36:54.300Z,0.39
2022-12-12T02:43:17.366Z,0.36
2022-12-12T02:49:37.187Z,0.35
2022-12-12T02:56:00.205Z,0.41
2022-12-12T03:02:20.190Z,0.47
2022-12-12T03:08:43.175Z,0.52
2022-12-12T03:15:03.248Z,0.57
2022-12-12T03:21:26.224Z,0.53
2022-12-12T03:27:46.179Z,0.53
2022-12-12T03:34:09.293Z,0.55
2022-12-12T03:40:29.146Z,0.59
2022-12-12T03:46:52.263Z,0.6
2022-12-12T03:53:12.232Z,0.61
2022-12-12T03:59:35.373Z,0.64
2022-12-12T04:17:22.657Z,0.64
2022-12-12T04:23:42.153Z,0.64
2022-12-12T04:30:05.187Z,0.67
2022-12-12T04:36:25.168Z,0.48
2022-12-12T04:42:48.196Z,0.4
2022-12-12T04:49:08.221Z,0.44
2022-12-12T04:55:31.212Z,0.54
2022-12-12T05:01:53.299Z,0.58
2022-12-12T05:08:14.280Z,0.61
2022-12-12T05:14:34.182Z,0.57
2022-12-12T05:20:57.148Z,0.54
2022-12-12T05:27:17.180Z,0.49
2022-12-12T05:33:40.296Z,0.49
2022-12-12T05:40:00.293Z,0.45
2022-12-12T05:46:23.210Z,0.39
2022-12-12T05:52:43.305Z,0.39
2022-12-12T05:59:06.200Z,0.38
2022-12-12T06:05:26.200Z,0.42
2022-12-12T06:11:49.337Z,0.44
2022-12-12T06:18:09.189Z,0.37
2022-12-12T06:24:32.166Z,0.26
2022-12-12T06:30:52.237Z,0.25
2022-12-12T06:37:17.312Z,0.31
2022-12-12T06:43:35.382Z,0.36
2022-12-12T06:49:58.349Z,0.39
2022-12-12T06:56:18.220Z,0.35
2022-12-12T07:02:41.288Z,0.27
2022-12-12T07:09:01.195Z,0.18
2022-12-12T07:15:24.175Z,0.14
2022-12-12T07:21:44.155Z,0.15
2022-12-12T07:28:07.176Z,0.11
2022-12-12T07:34:27.169Z,0.17
2022-12-12T07:40:50.174Z,0.27
2022-12-12T07:47:10.343Z,0.35
2022-12-12T07:53:33.236Z,0.41
2022-12-12T07:59:53.157Z,0.36
2022-12-12T08:06:16.180Z,0.39
2022-12-12T08:12:36.167Z,0.33
2022-12-12T08:18:59.268Z,0.46
2022-12-12T08:25:20.295Z,0.5
2022-12-12T08:31:43.172Z,0.61
2022-12-12T08:38:03.179Z,0.66
2022-12-12T08:44:26.176Z,0.69
2022-12-12T08:50:46.208Z,0.63
2022-12-12T08:57:09.163Z,0.7
2022-12-12T09:03:29.885Z,0.74
2022-12-12T09:09:52.240Z,0.72
2022-12-12T09:26:53.145Z,0.78
2022-12-12T09:33:16.157Z,0.93
2022-12-12T09:39:36.187Z,1.02
2022-12-12T09:45:59.300Z,0.99
2022-12-12T09:52:19.141Z,1.06
2022-12-12T09:58:46.802Z,1.16
2022-12-12T10:05:02.164Z,1.42
2022-12-12T10:11:25.172Z,1.68
2022-12-12T10:17:45.221Z,1.84
2022-12-12T10:24:08.184Z,1.81
2022-12-12T10:30:28.306Z,1.91
2022-12-12T10:36:51.239Z,2.01
2022-12-12T10:43:11.358Z,2.12
2022-12-12T10:49:34.195Z,2.26
2022-12-12T10:55:54.188Z,2.43
2022-12-12T11:02:17.417Z,2.59
2022-12-12T11:08:37.271Z,2.83
2022-12-12T11:15:00.164Z,2.99
2022-12-12T11:21:20.346Z,3.09
2022-12-12T11:27:43.240Z,3.22
2022-12-12T11:34:03.230Z,3.38
2022-12-12T11:40:26.210Z,3.61
2022-12-12T11:46:46.205Z,3.67
2022-12-12T11:53:09.255Z,3.75
2022-12-12T11:59:29.200Z,3.9
2022-12-12T12:05:52.210Z,4.02
2022-12-12T12:12:12.160Z,4.12
2022-12-12T12:18:35.376Z,4.23
2022-12-12T12:24:55.239Z,4.29
2022-12-12T12:31:18.489Z,4.2
2022-12-12T12:37:38.274Z,4.36
2022-12-12T12:44:01.171Z,4.35
2022-12-12T12:50:26.347Z,4.34
2022-12-12T12:56:49.213Z,4.45
2022-12-12T13:03:09.232Z,4.44
2022-12-12T13:09:32.185Z,4.42
2022-12-12T13:15:52.302Z,4.46
2022-12-12T13:22:15.217Z,4.41
2022-12-12T13:28:35.213Z,4.38
2022-12-12T13:34:58.287Z,4.26
2022-12-12T13:41:18.229Z,3.97
2022-12-12T13:47:41.493Z,3.77
2022-12-12T13:54:01.330Z,3.61
2022-12-12T14:00:24.248Z,3.46
2022-12-12T14:06:44.235Z,3.32
2022-12-12T14:13:07.282Z,3.16
2022-12-12T14:19:27.238Z,3.1
2022-12-12T14:25:50.236Z,2.92
2022-12-12T14:49:13.738Z,2.5
2022-12-12T14:55:33.151Z,2.34
2022-12-12T15:01:56.185Z,2.18
2022-12-12T15:08:16.229Z,2.04
2022-12-12T15:14:39.485Z,1.91
2022-12-12T15:20:59.157Z,1.82
2022-12-12T15:27:22.194Z,1.73
2022-12-12T15:33:42.170Z,1.62
2022-12-12T15:40:05.293Z,1.47
2022-12-12T15:46:25.267Z,1.3
2022-12-12T15:52:48.200Z,1.13
2022-12-12T15:59:08.207Z,0.96
2022-12-12T16:05:31.249Z,0.81
2022-12-12T16:11:51.200Z,0.72
2022-12-12T16:18:14.347Z,0.61
2022-12-12T16:24:34.196Z,0.46
2022-12-12T16:30:57.217Z,0.33
2022-12-12T16:37:17.247Z,0.2
2022-12-12T16:43:40.262Z,0.12
2022-12-12T16:50:00.338Z,0.06
2022-12-12T16:56:23.253Z,0.01
2022-12-12T17:02:43.299Z,-0.08
2022-12-12T17:09:06.196Z,-0.17
2022-12-12T17:15:26.156Z,-0.23
2022-12-12T17:21:49.207Z,-0.21
2022-12-12T17:28:09.144Z,-0.27
2022-12-12T17:34:32.288Z,-0.42
2022-12-12T17:40:52.200Z,-0.45
2022-12-12T17:47:15.222Z,-0.47
2022-12-12T17:53:35.184Z,-0.5
2022-12-12T17:59:58.166Z,-0.59
2022-12-12T18:06:18.259Z,-0.69
2022-12-12T18:12:41.214Z,-0.72
2022-12-12T18:19:01.272Z,-0.79
2022-12-12T18:25:24.215Z,-0.89
2022-12-12T18:31:44.421Z,-0.91
2022-12-12T18:38:07.199Z,-0.96
2022-12-12T18:44:27.158Z,-1.04
2022-12-12T18:50:50.252Z,-1.11
2022-12-12T18:57:10.298Z,-1.14
2022-12-12T19:03:33.174Z,-1.15
2022-12-12T19:09:53.236Z,-1.11
2022-12-12T19:16:16.309Z,-1.09
2022-12-12T19:22:51.520Z,-1.08
2022-12-12T19:28:59.251Z,-1.08
2022-12-12T19:45:42.333Z,-1.35
2022-12-12T19:52:09.222Z,-1.45
2022-12-12T19:58:25.266Z,-1.49
2022-12-12T20:04:48.251Z,-1.41
2022-12-12T20:11:08.244Z,-1.31
2022-12-12T20:17:31.277Z,-1.33
2022-12-12T20:23:51.214Z,-1.36
2022-12-12T20:30:14.405Z,-1.46
2022-12-12T20:36:34.284Z,-1.47
2022-12-12T20:43:01.692Z,-1.46
2022-12-12T20:49:17.265Z,-1.47
2022-12-12T20:55:40.177Z,-1.55
2022-12-12T21:02:00.196Z,-1.68
2022-12-12T21:08:23.425Z,-1.8
2022-12-12T21:14:43.169Z,-1.92
2022-12-12T21:21:06.170Z,-2.01
2022-12-12T21:27:26.209Z,-2.02
2022-12-12T21:33:49.247Z,-1.99
2022-12-12T21:40:09.216Z,-2.01
2022-12-12T21:46:33.411Z,-1.97
2022-12-12T21:52:53.205Z,-1.95
2022-12-12T21:59:18.317Z,-1.96
2022-12-12T22:05:38.261Z,-2.08
2022-12-12T22:12:02.908Z,-2.17
2022-12-12T22:18:21.221Z,-2.24
2022-12-12T22:24:44.155Z,-2.23
2022-12-12T22:31:04.218Z,-2.29
2022-12-12T22:37:27.169Z,-2.43
2022-12-12T22:43:47.300Z,-2.48
2022-12-12T22:50:10.173Z,-2.49
2022-12-12T22:56:30.252Z,-2.56
2022-12-12T23:20:48.197Z,-2.57
2022-12-12T23:27:08.151Z,-2.67
2022-12-12T23:33:31.205Z,-2.76
2022-12-12T23:39:51.213Z,-2.79
2022-12-12T23:46:14.214Z,-2.91
2022-12-12T23:52:34.175Z,-3.04
2022-12-12T23:58:57.279Z,-3.09
